sensor_id;sensor_type;location;lat;lon;timestamp;pressure;altitude;pressure_sealevel;temperature;humidity
46111;BME280;31849;55.992;37.252;2023-05-23T00:00:43;99531.19;;;12.19;65.02
46111;BME280;31849;55.992;37.252;2023-05-23T00:05:46;99524.25;;;12.13;65.32
46111;BME280;31849;55.992;37.252;2023-05-23T00:10:51;99524.28;;;12.10;65.67
46111;BME280;31849;55.992;37.252;2023-05-23T00:15:55;99528.66;;;12.05;66.00
46111;BME280;31849;55.992;37.252;2023-05-23T00:20:58;99528.69;;;12.01;65.54
46111;BME280;31849;55.992;37.252;2023-05-23T00:26:04;99526.09;;;11.98;65.91
46111;BME280;31849;55.992;37.252;2023-05-23T00:31:09;99522.66;;;11.91;66.00
46111;BME280;31849;55.992;37.252;2023-05-23T00:36:13;99528.72;;;11.91;66.36
46111;BME280;31849;55.992;37.252;2023-05-23T00:41:18;99513.09;;;11.91;66.71
46111;BME280;31849;55.992;37.252;2023-05-23T00:46:22;99504.47;;;11.80;66.33
46111;BME280;31849;55.992;37.252;2023-05-23T00:51:26;99516.59;;;11.96;65.97
46111;BME280;31849;55.992;37.252;2023-05-23T00:56:31;99520.91;;;11.98;66.02
46111;BME280;31849;55.992;37.252;2023-05-23T01:01:35;99517.47;;;11.91;66.06
46111;BME280;31849;55.992;37.252;2023-05-23T01:06:39;99517.47;;;11.89;66.35
46111;BME280;31849;55.992;37.252;2023-05-23T01:11:49;99519.19;;;11.89;66.68
46111;BME280;31849;55.992;37.252;2023-05-23T01:16:57;99484.59;;;11.68;66.57
46111;BME280;31849;55.992;37.252;2023-05-23T01:22:11;99511.41;;;11.86;66.23
46111;BME280;31849;55.992;37.252;2023-05-23T01:27:24;99513.16;;;11.82;66.52
46111;BME280;31849;55.992;37.252;2023-05-23T01:32:32;99505.38;;;11.79;66.32
46111;BME280;31849;55.992;37.252;2023-05-23T01:37:36;99501.00;;;11.83;66.53
46111;BME280;31849;55.992;37.252;2023-05-23T01:42:40;99499.25;;;11.88;66.32
46111;BME280;31849;55.992;37.252;2023-05-23T01:47:48;99464.56;;;11.78;66.51
46111;BME280;31849;55.992;37.252;2023-05-23T01:52:54;99492.25;;;11.98;66.75
46111;BME280;31849;55.992;37.252;2023-05-23T01:57:58;99490.41;;;12.10;66.32
46111;BME280;31849;55.992;37.252;2023-05-23T02:03:04;99496.38;;;12.25;65.89
46111;BME280;31849;55.992;37.252;2023-05-23T02:08:08;99485.00;;;12.32;65.37
46111;BME280;31849;55.992;37.252;2023-05-23T02:13:12;99498.78;;;12.46;65.21
46111;BME280;31849;55.992;37.252;2023-05-23T02:18:17;99489.06;;;12.61;65.21
46111;BME280;31849;55.992;37.252;2023-05-23T02:23:40;99496.78;;;12.72;65.02
46111;BME280;31849;55.992;37.252;2023-05-23T02:28:44;99492.25;;;12.89;64.55
46111;BME280;31849;55.992;37.252;2023-05-23T02:33:49;99450.28;;;13.05;63.39
46111;BME280;31849;55.992;37.252;2023-05-23T02:38:52;99476.75;;;13.48;62.62
46111;BME280;31849;55.992;37.252;2023-05-23T02:43:56;99458.84;;;13.81;61.69
46111;BME280;31849;55.992;37.252;2023-05-23T02:49:01;99470.38;;;14.22;61.00
46111;BME280;31849;55.992;37.252;2023-05-23T02:54:04;99471.75;;;14.43;60.33
46111;BME280;31849;55.992;37.252;2023-05-23T02:59:08;99471.28;;;14.70;59.84
46111;BME280;31849;55.992;37.252;2023-05-23T03:04:14;99480.34;;;14.97;58.46
46111;BME280;31849;55.992;37.252;2023-05-23T03:09:19;99472.06;;;15.19;57.94
46111;BME280;31849;55.992;37.252;2023-05-23T03:14:23;99466.41;;;15.76;57.16
46111;BME280;31849;55.992;37.252;2023-05-23T03:19:28;99457.34;;;16.60;54.76
46111;BME280;31849;55.992;37.252;2023-05-23T03:24:33;99473.00;;;17.26;52.72
46111;BME280;31849;55.992;37.252;2023-05-23T03:29:37;99476.50;;;17.56;51.41
46111;BME280;31849;55.992;37.252;2023-05-23T03:34:42;99481.69;;;18.15;50.21
46111;BME280;31849;55.992;37.252;2023-05-23T03:39:45;99475.88;;;18.30;49.81
46111;BME280;31849;55.992;37.252;2023-05-23T03:44:49;99483.56;;;18.36;49.09
46111;BME280;31849;55.992;37.252;2023-05-23T03:49:54;99484.66;;;18.31;48.12
46111;BME280;31849;55.992;37.252;2023-05-23T03:54:57;99475.25;;;18.74;47.81
46111;BME280;31849;55.992;37.252;2023-05-23T04:00:02;99492.44;;;18.86;47.11
46111;BME280;31849;55.992;37.252;2023-05-23T04:05:09;99480.81;;;18.66;46.59
46111;BME280;31849;55.992;37.252;2023-05-23T04:10:12;99460.31;;;18.74;46.46
46111;BME280;31849;55.992;37.252;2023-05-23T04:15:16;99473.59;;;18.71;46.55
46111;BME280;31849;55.992;37.252;2023-05-23T04:20:24;99467.78;;;18.61;46.83
46111;BME280;31849;55.992;37.252;2023-05-23T04:25:27;99449.84;;;18.73;46.19
46111;BME280;31849;55.992;37.252;2023-05-23T04:30:31;99446.34;;;18.72;45.98
46111;BME280;31849;55.992;37.252;2023-05-23T04:35:36;99454.03;;;18.78;46.46
46111;BME280;31849;55.992;37.252;2023-05-23T04:40:42;99450.53;;;19.03;46.11
46111;BME280;31849;55.992;37.252;2023-05-23T04:45:46;99466.34;;;18.78;46.33
46111;BME280;31849;55.992;37.252;2023-05-23T04:50:52;99463.50;;;18.59;47.04
46111;BME280;31849;55.992;37.252;2023-05-23T04:55:57;99461.22;;;18.23;47.98
46111;BME280;31849;55.992;37.252;2023-05-23T05:01:00;99469.06;;;18.24;47.78
46111;BME280;31849;55.992;37.252;2023-05-23T05:06:06;99468.38;;;18.19;47.85
46111;BME280;31849;55.992;37.252;2023-05-23T05:11:10;99463.72;;;18.01;47.97
46111;BME280;31849;55.992;37.252;2023-05-23T05:16:13;99472.69;;;18.47;47.54
46111;BME280;31849;55.992;37.252;2023-05-23T05:21:18;99471.56;;;19.05;46.24
46111;BME280;31849;55.992;37.252;2023-05-23T05:26:22;99474.56;;;19.41;45.75
46111;BME280;31849;55.992;37.252;2023-05-23T05:31:25;99461.91;;;19.73;45.05
46111;BME280;31849;55.992;37.252;2023-05-23T05:36:32;99471.19;;;20.06;44.03
46111;BME280;31849;55.992;37.252;2023-05-23T05:41:35;99473.56;;;20.32;43.96
46111;BME280;31849;55.992;37.252;2023-05-23T05:46:39;99470.09;;;21.13;42.59
46111;BME280;31849;55.992;37.252;2023-05-23T05:51:45;99489.06;;;23.99;37.60
46111;BME280;31849;55.992;37.252;2023-05-23T05:56:48;99493.59;;;26.28;33.95
46111;BME280;31849;55.992;37.252;2023-05-23T06:01:52;99475.91;;;29.09;29.77
46111;BME280;31849;55.992;37.252;2023-05-23T06:06:57;99481.72;;;27.11;30.53
46111;BME280;31849;55.992;37.252;2023-05-23T06:12:01;99462.88;;;25.26;33.76
46111;BME280;31849;55.992;37.252;2023-05-23T06:17:04;99466.00;;;23.84;36.04
46111;BME280;31849;55.992;37.252;2023-05-23T06:22:09;99466.22;;;22.48;37.76
46111;BME280;31849;55.992;37.252;2023-05-23T06:27:13;99459.31;;;21.36;39.70
46111;BME280;31849;55.992;37.252;2023-05-23T06:32:16;99458.91;;;20.87;40.65
46111;BME280;31849;55.992;37.252;2023-05-23T06:37:21;99442.25;;;20.64;41.16
46111;BME280;31849;55.992;37.252;2023-05-23T06:42:26;99447.56;;;20.44;41.72
46111;BME280;31849;55.992;37.252;2023-05-23T06:47:29;99437.47;;;20.33;42.25
46111;BME280;31849;55.992;37.252;2023-05-23T06:52:34;99437.13;;;20.82;41.90
46111;BME280;31849;55.992;37.252;2023-05-23T06:57:38;99433.06;;;20.94;42.04
46111;BME280;31849;55.992;37.252;2023-05-23T07:02:41;99426.44;;;21.78;40.49
46111;BME280;31849;55.992;37.252;2023-05-23T07:07:48;99421.78;;;22.87;38.80
46111;BME280;31849;55.992;37.252;2023-05-23T07:12:51;99424.38;;;25.73;35.40
46111;BME280;31849;55.992;37.252;2023-05-23T07:17:55;99414.75;;;28.23;30.70
46111;BME280;31849;55.992;37.252;2023-05-23T07:23:00;99410.84;;;29.08;29.70
46111;BME280;31849;55.992;37.252;2023-05-23T07:28:03;99399.69;;;31.26;26.58
46111;BME280;31849;55.992;37.252;2023-05-23T07:33:07;99406.63;;;30.57;26.87
46111;BME280;31849;55.992;37.252;2023-05-23T07:38:12;99398.28;;;29.20;28.08
46111;BME280;31849;55.992;37.252;2023-05-23T07:43:16;99400.94;;;28.30;29.06
46111;BME280;31849;55.992;37.252;2023-05-23T07:48:19;99395.25;;;28.80;28.58
46111;BME280;31849;55.992;37.252;2023-05-23T07:53:24;99408.38;;;28.02;29.04
46111;BME280;31849;55.992;37.252;2023-05-23T07:58:28;99403.84;;;27.43;30.53
46111;BME280;31849;55.992;37.252;2023-05-23T08:03:31;99404.47;;;25.92;33.05
46111;BME280;31849;55.992;37.252;2023-05-23T08:08:36;99405.47;;;25.91;32.88
46111;BME280;31849;55.992;37.252;2023-05-23T08:13:40;99400.00;;;26.32;32.65
46111;BME280;31849;55.992;37.252;2023-05-23T08:18:43;99396.38;;;26.33;32.42
46111;BME280;31849;55.992;37.252;2023-05-23T08:23:48;99405.03;;;26.37;31.65
46111;BME280;31849;55.992;37.252;2023-05-23T08:28:52;99397.25;;;26.34;31.67
46111;BME280;31849;55.992;37.252;2023-05-23T08:33:56;99388.81;;;26.40;32.51
46111;BME280;31849;55.992;37.252;2023-05-23T08:39:01;99391.91;;;26.60;31.65
46111;BME280;31849;55.992;37.252;2023-05-23T08:44:05;99385.72;;;26.21;31.98
46111;BME280;31849;55.992;37.252;2023-05-23T08:49:09;99380.81;;;26.14;31.90
46111;BME280;31849;55.992;37.252;2023-05-23T08:54:16;99383.50;;;25.87;32.58
46111;BME280;31849;55.992;37.252;2023-05-23T08:59:21;99375.88;;;26.08;32.12
46111;BME280;31849;55.992;37.252;2023-05-23T09:04:24;99378.13;;;26.27;31.99
46111;BME280;31849;55.992;37.252;2023-05-23T09:09:31;99381.88;;;26.50;32.12
46111;BME280;31849;55.992;37.252;2023-05-23T09:14:35;99372.81;;;26.79;32.08
46111;BME280;31849;55.992;37.252;2023-05-23T09:19:40;99390.19;;;26.59;32.61
46111;BME280;31849;55.992;37.252;2023-05-23T09:24:45;99382.19;;;26.07;33.42
46111;BME280;31849;55.992;37.252;2023-05-23T09:29:49;99386.66;;;26.45;33.01
46111;BME280;31849;55.992;37.252;2023-05-23T09:34:56;99391.69;;;26.24;33.85
46111;BME280;31849;55.992;37.252;2023-05-23T09:40:05;99380.63;;;27.06;32.74
46111;BME280;31849;55.992;37.252;2023-05-23T09:45:11;99382.34;;;27.07;32.98
46111;BME280;31849;55.992;37.252;2023-05-23T09:50:15;99398.41;;;26.56;33.79
46111;BME280;31849;55.992;37.252;2023-05-23T09:55:20;99386.13;;;26.02;33.88
46111;BME280;31849;55.992;37.252;2023-05-23T10:00:24;99394.41;;;25.70;34.44
46111;BME280;31849;55.992;37.252;2023-05-23T10:05:37;99391.31;;;25.36;35.03
46111;BME280;31849;55.992;37.252;2023-05-23T10:16:39;99394.97;;;24.91;36.38
46111;BME280;31849;55.992;37.252;2023-05-23T10:21:49;99393.41;;;25.16;36.88
46111;BME280;31849;55.992;37.252;2023-05-23T10:26:56;99408.00;;;25.52;36.28
46111;BME280;31849;55.992;37.252;2023-05-23T10:32:02;99413.28;;;25.10;36.95
46111;BME280;31849;55.992;37.252;2023-05-23T10:37:11;99419.72;;;24.49;37.79
46111;BME280;31849;55.992;37.252;2023-05-23T10:42:22;99420.19;;;23.80;39.01
46111;BME280;31849;55.992;37.252;2023-05-23T10:47:31;99420.56;;;23.58;39.99
46111;BME280;31849;55.992;37.252;2023-05-23T10:52:38;99419.97;;;23.21;40.69
46111;BME280;31849;55.992;37.252;2023-05-23T10:57:43;99418.69;;;23.12;40.89
46111;BME280;31849;55.992;37.252;2023-05-23T11:02:52;99418.78;;;22.93;41.98
46111;BME280;31849;55.992;37.252;2023-05-23T11:08:07;99421.56;;;22.58;42.54
46111;BME280;31849;55.992;37.252;2023-05-23T11:13:11;99421.63;;;21.87;44.52
46111;BME280;31849;55.992;37.252;2023-05-23T11:18:26;99419.72;;;21.71;44.91
46111;BME280;31849;55.992;37.252;2023-05-23T11:23:39;99418.56;;;21.21;46.40
46111;BME280;31849;55.992;37.252;2023-05-23T11:28:54;99420.69;;;20.94;46.96
46111;BME280;31849;55.992;37.252;2023-05-23T11:34:00;99421.09;;;20.66;48.26
46111;BME280;31849;55.992;37.252;2023-05-23T11:39:04;99424.63;;;20.65;48.45
46111;BME280;31849;55.992;37.252;2023-05-23T11:44:11;99431.50;;;20.48;49.73
46111;BME280;31849;55.992;37.252;2023-05-23T11:49:16;99415.16;;;20.19;51.46
46111;BME280;31849;55.992;37.252;2023-05-23T11:54:22;99404.97;;;19.67;54.84
46111;BME280;31849;55.992;37.252;2023-05-23T11:59:25;99425.56;;;19.36;55.63
46111;BME280;31849;55.992;37.252;2023-05-23T12:04:30;99442.16;;;18.92;57.83
46111;BME280;31849;55.992;37.252;2023-05-23T12:09:42;99434.31;;;18.90;58.06
46111;BME280;31849;55.992;37.252;2023-05-23T12:14:47;99442.22;;;18.90;58.69
46111;BME280;31849;55.992;37.252;2023-05-23T12:19:53;99438.75;;;18.63;60.34
46111;BME280;31849;55.992;37.252;2023-05-23T12:24:56;99436.88;;;18.67;60.53
46111;BME280;31849;55.992;37.252;2023-05-23T12:30:04;99438.94;;;18.58;61.39
46111;BME280;31849;55.992;37.252;2023-05-23T12:35:11;99437.28;;;18.31;63.25
46111;BME280;31849;55.992;37.252;2023-05-23T12:40:17;99424.53;;;18.43;61.83
46111;BME280;31849;55.992;37.252;2023-05-23T12:45:22;99419.94;;;18.50;62.55
46111;BME280;31849;55.992;37.252;2023-05-23T12:50:27;99417.19;;;18.53;62.58
46111;BME280;31849;55.992;37.252;2023-05-23T12:55:31;99417.81;;;18.60;62.80
46111;BME280;31849;55.992;37.252;2023-05-23T13:00:34;99404.13;;;18.99;62.05
46111;BME280;31849;55.992;37.252;2023-05-23T13:05:40;99411.41;;;19.60;60.26
46111;BME280;31849;55.992;37.252;2023-05-23T13:10:43;99414.75;;;19.64;60.01
46111;BME280;31849;55.992;37.252;2023-05-23T13:15:47;99412.50;;;19.77;59.22
46111;BME280;31849;55.992;37.252;2023-05-23T13:20:54;99411.41;;;19.60;59.23
46111;BME280;31849;55.992;37.252;2023-05-23T13:25:57;99409.91;;;19.97;58.52
46111;BME280;31849;55.992;37.252;2023-05-23T13:31:01;99398.13;;;20.06;57.77
46111;BME280;31849;55.992;37.252;2023-05-23T13:36:06;99398.63;;;20.35;57.83
46111;BME280;31849;55.992;37.252;2023-05-23T13:41:10;99405.31;;;20.44;57.40
46111;BME280;31849;55.992;37.252;2023-05-23T13:46:14;99397.63;;;20.58;56.42
46111;BME280;31849;55.992;37.252;2023-05-23T13:51:19;99391.72;;;20.32;56.93
46111;BME280;31849;55.992;37.252;2023-05-23T13:56:22;99395.69;;;20.22;57.20
46111;BME280;31849;55.992;37.252;2023-05-23T14:01:26;99374.31;;;20.08;57.16
46111;BME280;31849;55.992;37.252;2023-05-23T14:06:32;99371.59;;;20.09;58.80
46111;BME280;31849;55.992;37.252;2023-05-23T14:11:35;99380.16;;;20.14;58.28
46111;BME280;31849;55.992;37.252;2023-05-23T14:16:39;99390.53;;;19.98;57.96
46111;BME280;31849;55.992;37.252;2023-05-23T14:21:44;99380.22;;;19.92;57.72
46111;BME280;31849;55.992;37.252;2023-05-23T14:26:48;99377.06;;;19.84;57.75
46111;BME280;31849;55.992;37.252;2023-05-23T14:31:52;99378.09;;;19.80;57.97
46111;BME280;31849;55.992;37.252;2023-05-23T14:36:57;99379.56;;;19.87;57.69
46111;BME280;31849;55.992;37.252;2023-05-23T14:42:01;99374.34;;;19.85;58.02
46111;BME280;31849;55.992;37.252;2023-05-23T14:47:05;99382.91;;;19.91;57.82
46111;BME280;31849;55.992;37.252;2023-05-23T14:52:10;99370.75;;;19.88;57.93
46111;BME280;31849;55.992;37.252;2023-05-23T14:57:14;99367.09;;;19.91;57.90
46111;BME280;31849;55.992;37.252;2023-05-23T15:02:18;99352.34;;;19.87;58.02
46111;BME280;31849;55.992;37.252;2023-05-23T15:07:23;99358.19;;;19.93;58.25
46111;BME280;31849;55.992;37.252;2023-05-23T15:12:27;99353.31;;;20.05;57.50
46111;BME280;31849;55.992;37.252;2023-05-23T15:17:31;99311.31;;;19.79;57.44
46111;BME280;31849;55.992;37.252;2023-05-23T15:22:37;99343.03;;;20.19;57.69
46111;BME280;31849;55.992;37.252;2023-05-23T15:27:41;99335.88;;;20.21;56.80
46111;BME280;31849;55.992;37.252;2023-05-23T15:32:46;99332.25;;;20.24;56.57
46111;BME280;31849;55.992;37.252;2023-05-23T15:37:51;99333.63;;;20.32;56.72
46111;BME280;31849;55.992;37.252;2023-05-23T15:42:55;99334.75;;;20.27;57.13
46111;BME280;31849;55.992;37.252;2023-05-23T15:47:58;99327.81;;;20.24;57.31
46111;BME280;31849;55.992;37.252;2023-05-23T15:53:03;99323.47;;;20.23;57.47
46111;BME280;31849;55.992;37.252;2023-05-23T15:58:07;99324.09;;;19.89;58.10
46111;BME280;31849;55.992;37.252;2023-05-23T16:03:11;99322.69;;;19.80;57.97
46111;BME280;31849;55.992;37.252;2023-05-23T16:08:16;99310.38;;;19.80;58.79
46111;BME280;31849;55.992;37.252;2023-05-23T16:13:19;99303.69;;;19.72;59.55
46111;BME280;31849;55.992;37.252;2023-05-23T16:18:23;99307.56;;;19.63;60.14
46111;BME280;31849;55.992;37.252;2023-05-23T16:23:30;99300.16;;;19.50;60.75
46111;BME280;31849;55.992;37.252;2023-05-23T16:28:33;99292.94;;;19.33;61.22
46111;BME280;31849;55.992;37.252;2023-05-23T16:33:37;99290.47;;;19.08;62.07
46111;BME280;31849;55.992;37.252;2023-05-23T16:38:42;99283.34;;;19.10;62.33
46111;BME280;31849;55.992;37.252;2023-05-23T16:43:45;99280.34;;;18.97;63.03
46111;BME280;31849;55.992;37.252;2023-05-23T16:48:49;99274.34;;;18.94;63.22
46111;BME280;31849;55.992;37.252;2023-05-23T16:53:54;99271.81;;;18.91;63.70
46111;BME280;31849;55.992;37.252;2023-05-23T16:58:57;99278.13;;;18.87;64.29
46111;BME280;31849;55.992;37.252;2023-05-23T17:04:02;99268.53;;;18.86;63.75
46111;BME280;31849;55.992;37.252;2023-05-23T17:09:08;99275.09;;;18.74;64.01
46111;BME280;31849;55.992;37.252;2023-05-23T17:14:11;99280.72;;;18.65;64.32
46111;BME280;31849;55.992;37.252;2023-05-23T17:19:15;99285.34;;;18.58;64.22
46111;BME280;31849;55.992;37.252;2023-05-23T17:24:20;99294.34;;;18.52;64.94
46111;BME280;31849;55.992;37.252;2023-05-23T17:29:24;99299.06;;;18.44;65.54
46111;BME280;31849;55.992;37.252;2023-05-23T17:34:28;99295.03;;;18.34;65.76
46111;BME280;31849;55.992;37.252;2023-05-23T17:39:33;99309.41;;;18.25;66.35
46111;BME280;31849;55.992;37.252;2023-05-23T17:44:36;99300.69;;;18.23;66.61
46111;BME280;31849;55.992;37.252;2023-05-23T17:49:41;99296.47;;;18.19;66.33
46111;BME280;31849;55.992;37.252;2023-05-23T17:54:46;99303.25;;;18.24;67.02
46111;BME280;31849;55.992;37.252;2023-05-23T17:59:49;99292.34;;;18.12;67.38
46111;BME280;31849;55.992;37.252;2023-05-23T18:04:53;99271.16;;;18.15;67.00
46111;BME280;31849;55.992;37.252;2023-05-23T18:09:59;99258.31;;;18.07;67.51
46111;BME280;31849;55.992;37.252;2023-05-23T18:15:03;99254.00;;;18.04;67.59
46111;BME280;31849;55.992;37.252;2023-05-23T18:20:08;99257.53;;;18.03;67.71
46111;BME280;31849;55.992;37.252;2023-05-23T18:25:13;99255.94;;;17.99;67.92
46111;BME280;31849;55.992;37.252;2023-05-23T18:30:22;99248.69;;;17.81;68.36
46111;BME280;31849;55.992;37.252;2023-05-23T18:35:25;99246.16;;;17.78;68.41
46111;BME280;31849;55.992;37.252;2023-05-23T18:40:30;99249.84;;;17.72;68.80
46111;BME280;31849;55.992;37.252;2023-05-23T18:45:34;99244.88;;;17.64;69.02
46111;BME280;31849;55.992;37.252;2023-05-23T18:50:39;99242.41;;;17.60;69.04
46111;BME280;31849;55.992;37.252;2023-05-23T18:55:45;99244.25;;;17.56;69.26
46111;BME280;31849;55.992;37.252;2023-05-23T19:00:49;99233.75;;;17.56;68.57
46111;BME280;31849;55.992;37.252;2023-05-23T19:05:52;99233.06;;;17.51;68.89
46111;BME280;31849;55.992;37.252;2023-05-23T19:11:02;99219.16;;;17.47;68.64
46111;BME280;31849;55.992;37.252;2023-05-23T19:16:05;99213.31;;;17.39;68.52
46111;BME280;31849;55.992;37.252;2023-05-23T19:21:09;99224.53;;;17.44;68.47
46111;BME280;31849;55.992;37.252;2023-05-23T19:26:15;99220.81;;;17.50;67.68
46111;BME280;31849;55.992;37.252;2023-05-23T19:31:21;99227.03;;;17.47;67.39
46111;BME280;31849;55.992;37.252;2023-05-23T19:36:24;99224.38;;;17.49;67.30
46111;BME280;31849;55.992;37.252;2023-05-23T19:41:29;99221.75;;;17.49;67.14
46111;BME280;31849;55.992;37.252;2023-05-23T19:46:33;99220.81;;;17.50;66.93
46111;BME280;31849;55.992;37.252;2023-05-23T19:51:37;99216.50;;;17.49;66.79
46111;BME280;31849;55.992;37.252;2023-05-23T19:56:42;99223.63;;;17.45;66.70
46111;BME280;31849;55.992;37.252;2023-05-23T20:01:46;99216.06;;;17.36;66.85
46111;BME280;31849;55.992;37.252;2023-05-23T20:06:51;99192.84;;;17.22;66.62
46111;BME280;31849;55.992;37.252;2023-05-23T20:11:55;99209.50;;;17.22;66.29
46111;BME280;31849;55.992;37.252;2023-05-23T20:16:59;99205.41;;;17.14;66.42
46111;BME280;31849;55.992;37.252;2023-05-23T20:22:03;99209.91;;;17.10;66.55
46111;BME280;31849;55.992;37.252;2023-05-23T20:27:07;99206.25;;;17.14;66.02
46111;BME280;31849;55.992;37.252;2023-05-23T20:32:11;99203.63;;;17.14;66.25
46111;BME280;31849;55.992;37.252;2023-05-23T20:37:15;99205.56;;;17.09;66.36
46111;BME280;31849;55.992;37.252;2023-05-23T20:42:20;99195.00;;;17.11;66.13
46111;BME280;31849;55.992;37.252;2023-05-23T20:47:23;99197.69;;;17.09;65.80
46111;BME280;31849;55.992;37.252;2023-05-23T20:52:27;99194.38;;;17.02;65.70
46111;BME280;31849;55.992;37.252;2023-05-23T20:57:33;99193.44;;;17.05;65.65
46111;BME280;31849;55.992;37.252;2023-05-23T21:02:38;99204.00;;;17.03;65.62
46111;BME280;31849;55.992;37.252;2023-05-23T21:07:42;99189.97;;;17.04;65.37
46111;BME280;31849;55.992;37.252;2023-05-23T21:12:47;99179.66;;;16.98;65.39
46111;BME280;31849;55.992;37.252;2023-05-23T21:17:52;99178.03;;;16.94;65.51
46111;BME280;31849;55.992;37.252;2023-05-23T21:22:55;99183.28;;;16.94;65.38
46111;BME280;31849;55.992;37.252;2023-05-23T21:28:01;99176.31;;;16.93;65.32
46111;BME280;31849;55.992;37.252;2023-05-23T21:33:04;99181.72;;;16.88;65.16
46111;BME280;31849;55.992;37.252;2023-05-23T21:38:09;99182.63;;;16.87;65.18
46111;BME280;31849;55.992;37.252;2023-05-23T21:43:14;99176.47;;;16.88;65.22
46111;BME280;31849;55.992;37.252;2023-05-23T21:48:17;99170.38;;;16.88;65.11
46111;BME280;31849;55.992;37.252;2023-05-23T21:53:21;99173.25;;;16.79;65.41
46111;BME280;31849;55.992;37.252;2023-05-23T21:58:26;99170.81;;;16.73;65.66
46111;BME280;31849;55.992;37.252;2023-05-23T22:03:29;99163.91;;;16.70;65.66
46111;BME280;31849;55.992;37.252;2023-05-23T22:08:33;99148.50;;;16.59;65.77
46111;BME280;31849;55.992;37.252;2023-05-23T22:13:38;99142.34;;;16.60;65.71
46111;BME280;31849;55.992;37.252;2023-05-23T22:18:42;99150.88;;;16.67;65.75
46111;BME280;31849;55.992;37.252;2023-05-23T22:23:49;99153.75;;;16.59;66.00
46111;BME280;31849;55.992;37.252;2023-05-23T22:28:54;99149.13;;;16.67;65.70
46111;BME280;31849;55.992;37.252;2023-05-23T22:33:58;99152.53;;;16.69;65.64
46111;BME280;31849;55.992;37.252;2023-05-23T22:39:02;99156.03;;;16.70;65.50
46111;BME280;31849;55.992;37.252;2023-05-23T22:44:08;99138.72;;;16.64;65.56
46111;BME280;31849;55.992;37.252;2023-05-23T22:49:11;99148.97;;;16.72;65.41
46111;BME280;31849;55.992;37.252;2023-05-23T22:54:16;99137.81;;;16.65;65.66
46111;BME280;31849;55.992;37.252;2023-05-23T22:59:21;99138.72;;;16.64;65.73
46111;BME280;31849;55.992;37.252;2023-05-23T23:04:25;99147.59;;;16.60;65.69
46111;BME280;31849;55.992;37.252;2023-05-23T23:09:31;99144.94;;;16.62;65.81
46111;BME280;31849;55.992;37.252;2023-05-23T23:14:36;99142.47;;;16.57;65.96
46111;BME280;31849;55.992;37.252;2023-05-23T23:19:40;99143.44;;;16.53;65.88
46111;BME280;31849;55.992;37.252;2023-05-23T23:24:44;99141.69;;;16.53;65.92
46111;BME280;31849;55.992;37.252;2023-05-23T23:29:49;99142.41;;;16.59;66.01
46111;BME280;31849;55.992;37.252;2023-05-23T23:34:53;99140.63;;;16.59;65.71
46111;BME280;31849;55.992;37.252;2023-05-23T23:39:57;99132.16;;;16.51;65.52
46111;BME280;31849;55.992;37.252;2023-05-23T23:45:03;99132.22;;;16.49;66.13
46111;BME280;31849;55.992;37.252;2023-05-23T23:50:08;99133.25;;;16.44;66.32
46111;BME280;31849;55.992;37.252;2023-05-23T23:55:14;99132.25;;;16.48;66.24
